Station Historical Data
Daily Summary for May 31, 2012 Units:  Metric    English   Both
« Previous Day
Next Day »
Daily Weekly Monthly Yearly Custom
  High: Low: Average:
Temperature: 29.9 °C 18.3 °C 23.2 °C
Dew Point: 20.7 °C 16.2 °C 18.2 °C
Humidity: 92% 50% 75%
Wind Speed: 24.1km/h 0km/h 6.9km/h
Wind Gust: 32.2km/h - -
Wind- - SSE
Pressure: 1010 hPa 1003.9 hPa -
Precipitation: 0 mm    
Historical Graphs
 
 
Tabular Data for May 31, 2012
Time Temperature Dew Point Pressure Wind Wind Speed Wind Gust Humidity Rainfall Rate (Hourly) Conditions
00:00 22.1 °C 18.3 °C 1008.7 hPa NE 4.8 km/h 6.4 km/h 79% 0 mm
00:01 22.1 °C 18.3 °C 1008.7 hPa NNE 3.2 km/h 6.4 km/h 79% 0 mm
00:06 22.1 °C 18.2 °C 1009 hPa NNE 6.4 km/h 6.4 km/h 79% 0 mm
00:11 22 °C 18.2 °C 1009 hPa NNE 3.2 km/h 6.4 km/h 79% 0 mm
00:12 22 °C 18.4 °C 1009 hPa NNE 3.2 km/h 4.8 km/h 80% 0 mm
00:17 21.8 °C 18.2 °C 1009 hPa NE 3.2 km/h 3.2 km/h 80% 0 mm
00:22 21.7 °C 18.3 °C 1009 hPa NE 3.2 km/h 4.8 km/h 81% 0 mm
00:27 21.7 °C 18.3 °C 1009.4 hPa NNE 1.6 km/h 6.4 km/h 81% 0 mm
00:32 21.7 °C 18.3 °C 1009.4 hPa Calm   3.2 km/h 81% 0 mm
00:37 21.4 °C 18.2 °C 1009.4 hPa SSW 3.2 km/h 4.8 km/h 82% 0 mm
00:42 20.9 °C 18.2 °C 1009.4 hPa South 3.2 km/h 6.4 km/h 84% 0 mm
00:47 20.8 °C 18.2 °C 1009.4 hPa NNE 3.2 km/h 3.2 km/h 85% 0 mm
00:52 20.8 °C 18.2 °C 1009.4 hPa NNE 1.6 km/h 4.8 km/h 85% 0 mm
00:57 20.6 °C 18.1 °C 1009.4 hPa Calm   1.6 km/h 86% 0 mm
01:02 20.4 °C 18.2 °C 1009.4 hPa SSE 4.8 km/h 4.8 km/h 87% 0 mm
01:07 20.2 °C 18 °C 1009.4 hPa SE 1.6 km/h 4.8 km/h 87% 0 mm
01:12 20.2 °C 18.1 °C 1009 hPa Calm   1.6 km/h 88% 0 mm
01:17 20.1 °C 18.2 °C 1009 hPa SW 1.6 km/h 3.2 km/h 89% 0 mm
01:22 20 °C 17.9 °C 1009.4 hPa West 3.2 km/h 3.2 km/h 88% 0 mm
01:27 19.9 °C 18.2 °C 1009.4 hPa West 3.2 km/h 6.4 km/h 90% 0 mm
01:32 19.9 °C 18.1 °C 1009.7 hPa SW 3.2 km/h 8 km/h 89% 0 mm
01:37 19.9 °C 18.1 °C 1009.4 hPa Calm   3.2 km/h 89% 0 mm
01:42 19.8 °C 17.9 °C 1009.4 hPa Calm     89% 0 mm
01:47 19.6 °C 17.8 °C 1009.4 hPa Calm   1.6 km/h 89% 0 mm
01:53 19.7 °C 17.9 °C 1009.4 hPa SW 1.6 km/h 1.6 km/h 89% 0 mm
01:58 19.7 °C 17.8 °C 1009.7 hPa Calm   1.6 km/h 89% 0 mm
02:03 19.7 °C 18.1 °C 1009.4 hPa WSW 4.8 km/h 4.8 km/h 90% 0 mm
02:08 19.9 °C 18 °C 1009.4 hPa NE 4.8 km/h 4.8 km/h 89% 0 mm
02:13 19.8 °C 17.9 °C 1009.4 hPa Calm   3.2 km/h 89% 0 mm
02:18 19.8 °C 17.9 °C 1009.4 hPa East 1.6 km/h 1.6 km/h 89% 0 mm
02:23 19.7 °C 17.9 °C 1009.7 hPa Calm     89% 0 mm
02:28 19.5 °C 17.7 °C 1009.7 hPa Calm     89% 0 mm
02:33 19.3 °C 17.7 °C 1009.7 hPa East 1.6 km/h 1.6 km/h 90% 0 mm
02:38 19.3 °C 17.8 °C 1010 hPa North 3.2 km/h 3.2 km/h 91% 0 mm
02:43 19.2 °C 17.7 °C 1009.7 hPa Calm   3.2 km/h 91% 0 mm
02:48 19.2 °C 17.7 °C 1009.7 hPa North 1.6 km/h 1.6 km/h 91% 0 mm
02:53 19.3 °C 17.8 °C 1009.7 hPa North 1.6 km/h 1.6 km/h 91% 0 mm
02:58 19.5 °C 18 °C 1009.7 hPa Calm     91% 0 mm
03:03 19.6 °C 17.9 °C 1009.7 hPa Calm     90% 0 mm
03:08 19.6 °C 17.9 °C 1009.4 hPa Calm   3.2 km/h 90% 0 mm
03:13 19.5 °C 18 °C 1009.4 hPa Calm     91% 0 mm
03:18 19.4 °C 17.9 °C 1009.4 hPa Calm     91% 0 mm
03:23 19.4 °C 17.9 °C 1009.4 hPa Calm     91% 0 mm
03:28 19.4 °C 17.9 °C 1009 hPa Calm     91% 0 mm
03:33 19.4 °C 17.9 °C 1009 hPa Calm   1.6 km/h 91% 0 mm
03:38 19.4 °C 17.9 °C 1009 hPa Calm     91% 0 mm
03:43 19.7 °C 18.3 °C 1008.7 hPa East 3.2 km/h 3.2 km/h 92% 0 mm
03:48 19.8 °C 18.3 °C 1008.7 hPa NNE 6.4 km/h 6.4 km/h 91% 0 mm
03:53 19.8 °C 18.2 °C 1008.7 hPa NNE 4.8 km/h 6.4 km/h 90% 0 mm
03:58 19.9 °C 18 °C 1008.4 hPa Calm   4.8 km/h 89% 0 mm
04:04 19.8 °C 18.2 °C 1008.7 hPa NNW 1.6 km/h 3.2 km/h 90% 0 mm
04:09 19.7 °C 18.2 °C 1008.7 hPa Calm   1.6 km/h 91% 0 mm
04:14 19.6 °C 18.1 °C 1008.7 hPa NNW 1.6 km/h 1.6 km/h 91% 0 mm
04:19 19.6 °C 18.1 °C 1008.7 hPa North 1.6 km/h 1.6 km/h 91% 0 mm
04:24 19.6 °C 18.1 °C 1008.7 hPa Calm   1.6 km/h 91% 0 mm
04:29 19.6 °C 17.9 °C 1008.7 hPa Calm   1.6 km/h 90% 0 mm
04:34 19.6 °C 18.1 °C 1008.4 hPa NNE 1.6 km/h 1.6 km/h 91% 0 mm
04:39 19.6 °C 17.9 °C 1008.4 hPa Calm   3.2 km/h 90% 0 mm
04:44 19.5 °C 17.8 °C 1008.7 hPa NNE 1.6 km/h 1.6 km/h 90% 0 mm
04:49 19.4 °C 17.9 °C 1008.4 hPa North 3.2 km/h 3.2 km/h 91% 0 mm
04:54 19.5 °C 17.8 °C 1008.4 hPa Calm   1.6 km/h 90% 0 mm
04:59 19.6 °C 17.9 °C 1008.4 hPa Calm     90% 0 mm
05:04 19.6 °C 17.9 °C 1008.4 hPa NE 1.6 km/h 3.2 km/h 90% 0 mm
05:09 19.7 °C 17.9 °C 1008.4 hPa Calm   1.6 km/h 89% 0 mm
05:14 19.7 °C 17.8 °C 1008.4 hPa NNE 1.6 km/h 1.6 km/h 89% 0 mm
05:19 19.4 °C 17.8 °C 1008.4 hPa Calm     90% 0 mm
05:24 19.3 °C 17.6 °C 1008 hPa Calm     90% 0 mm
05:29 19.2 °C 17.7 °C 1008 hPa Calm     91% 0 mm
05:34 19.1 °C 17.6 °C 1008 hPa Calm     91% 0 mm
05:40 19 °C 17.7 °C 1008 hPa Calm     92% 0 mm
05:45 18.9 °C 17.6 °C 1008 hPa Calm   3.2 km/h 92% 0 mm
05:50 18.8 °C 17.4 °C 1007.7 hPa NNE 3.2 km/h 4.8 km/h 92% 0 mm
05:55 18.6 °C 17.3 °C 1008 hPa Calm   1.6 km/h 92% 0 mm
06:00 18.6 °C 17.2 °C 1007.7 hPa NNE 3.2 km/h 4.8 km/h 92% 0 mm
06:05 18.6 °C 17.2 °C 1007.7 hPa NNE 3.2 km/h 4.8 km/h 92% 0 mm
06:10 18.6 °C 17.3 °C 1007.7 hPa NE 1.6 km/h 4.8 km/h 92% 0 mm
06:15 18.6 °C 17.3 °C 1007.7 hPa North 1.6 km/h 3.2 km/h 92% 0 mm
06:20 18.6 °C 17.3 °C 1008 hPa Calm   1.6 km/h 92% 0 mm
06:25 18.6 °C 17.2 °C 1008 hPa North 1.6 km/h 1.6 km/h 92% 0 mm
06:30 18.6 °C 17.2 °C 1008 hPa Calm     92% 0 mm
06:35 18.5 °C 17.2 °C 1008 hPa NNW 1.6 km/h 1.6 km/h 92% 0 mm
06:40 18.5 °C 17.2 °C 1008 hPa Calm   1.6 km/h 92% 0 mm
06:45 18.4 °C 17.1 °C 1008 hPa Calm   1.6 km/h 92% 0 mm
06:50 18.3 °C 17 °C 1008 hPa East 1.6 km/h 1.6 km/h 92% 0 mm
06:51 18.4 °C 17.1 °C 1008 hPa Calm   1.6 km/h 92% 0 mm
06:56 18.4 °C 17.1 °C 1008.4 hPa Calm   1.6 km/h 92% 0 mm
07:01 18.6 °C 17.3 °C 1008.4 hPa East 1.6 km/h 8 km/h 92% 0 mm
07:06 18.8 °C 17.3 °C 1008.4 hPa ESE 1.6 km/h 3.2 km/h 91% 0 mm
07:11 18.9 °C 17.4 °C 1008.4 hPa ESE 3.2 km/h 3.2 km/h 91% 0 mm
07:16 19.1 °C 17.6 °C 1008.4 hPa East 4.8 km/h 4.8 km/h 91% 0 mm
07:21 19.3 °C 17.8 °C 1008.4 hPa Calm   3.2 km/h 91% 0 mm
07:26 19.6 °C 17.8 °C 1008 hPa Calm   4.8 km/h 89% 0 mm
07:31 19.9 °C 17.9 °C 1008 hPa ENE 3.2 km/h 4.8 km/h 88% 0 mm
07:36 20 °C 17.8 °C 1008.4 hPa East 3.2 km/h 6.4 km/h 87% 0 mm
07:41 20 °C 17.8 °C 1008.4 hPa East 3.2 km/h 4.8 km/h 87% 0 mm
07:46 20.1 °C 17.8 °C 1008.4 hPa Calm   3.2 km/h 87% 0 mm
07:51 20.2 °C 17.8 °C 1008.4 hPa NE 1.6 km/h 4.8 km/h 86% 0 mm
07:56 20.5 °C 18.1 °C 1008.4 hPa Calm     86% 0 mm
08:01 20.7 °C 17.9 °C 1008.4 hPa NE 3.2 km/h 4.8 km/h 84% 0 mm
08:06 20.6 °C 17.9 °C 1008.4 hPa Calm   3.2 km/h 85% 0 mm
08:12 20.4 °C 17.8 °C 1008.4 hPa East 3.2 km/h 3.2 km/h 85% 0 mm
08:17 20.4 °C 18 °C 1008 hPa Calm   3.2 km/h 86% 0 mm
08:22 20.8 °C 18.3 °C 1008.4 hPa East 1.6 km/h 1.6 km/h 86% 0 mm
08:27 21.2 °C 18.4 °C 1008.4 hPa East 1.6 km/h 4.8 km/h 84% 0 mm
08:32 21.6 °C 18.7 °C 1008.4 hPa North 4.8 km/h 4.8 km/h 84% 0 mm
08:37 21.7 °C 18.5 °C 1008.4 hPa ENE 3.2 km/h 4.8 km/h 82% 0 mm
08:42 21.9 °C 18.3 °C 1008 hPa ENE 1.6 km/h 6.4 km/h 80% 0 mm
08:47 21.9 °C 18.3 °C 1008 hPa ENE 1.6 km/h 3.2 km/h 80% 0 mm
08:52 21.7 °C 18.1 °C 1008.4 hPa ENE 1.6 km/h 4.8 km/h 80% 0 mm
08:57 21.6 °C 18.2 °C 1008.4 hPa ESE 3.2 km/h 3.2 km/h 81% 0 mm
09:02 21.7 °C 18.1 °C 1008.4 hPa ESE 4.8 km/h 4.8 km/h 80% 0 mm
09:07 21.7 °C 18.5 °C 1008.4 hPa ESE 4.8 km/h 6.4 km/h 82% 0 mm
09:12 21.8 °C 18.6 °C 1008.7 hPa ESE 6.4 km/h 8 km/h 82% 0 mm
09:17 22 °C 18.6 °C 1008.7 hPa ESE 8 km/h 14.5 km/h 81% 0 mm
09:22 22.1 °C 18.5 °C 1008.7 hPa ESE 6.4 km/h 11.3 km/h 80% 0 mm
09:27 22.4 °C 18.4 °C 1008.7 hPa East 8 km/h 11.3 km/h 78% 0 mm
09:32 22.8 °C 18.7 °C 1008.7 hPa SE 12.9 km/h 12.9 km/h 78% 0 mm
09:37 22.9 °C 18.9 °C 1008.7 hPa ESE 11.3 km/h 16.1 km/h 78% 0 mm
09:42 22.9 °C 18.7 °C 1008.7 hPa SE 6.4 km/h 12.9 km/h 77% 0 mm
09:47 23.2 °C 18.9 °C 1009 hPa ESE 11.3 km/h 12.9 km/h 77% 0 mm
09:52 22.9 °C 18.8 °C 1008.7 hPa SSE 11.3 km/h 11.3 km/h 78% 0 mm
09:57 22.7 °C 19.1 °C 1008.7 hPa SSE 8 km/h 9.7 km/h 80% 0 mm
10:02 23.1 °C 19.5 °C 1008.7 hPa South 4.8 km/h 9.7 km/h 80% 0 mm
10:07 23.3 °C 19.4 °C 1008.7 hPa SSE 6.4 km/h 12.9 km/h 79% 0 mm
10:12 23.6 °C 19.7 °C 1008.7 hPa SSE 11.3 km/h 14.5 km/h 79% 0 mm
10:17 23.7 °C 19.9 °C 1008.7 hPa SSE 6.4 km/h 12.9 km/h 79% 0 mm
10:22 23.9 °C 19.8 °C 1008.7 hPa SSE 6.4 km/h 9.7 km/h 78% 0 mm
10:28 24 °C 19.9 °C 1008.7 hPa ESE 4.8 km/h 16.1 km/h 78% 0 mm
10:33 24.3 °C 20.3 °C 1008.7 hPa South 9.7 km/h 11.3 km/h 78% 0 mm
10:38 24.6 °C 20.1 °C 1008.7 hPa SSE 8 km/h 9.7 km/h 76% 0 mm
10:43 24.7 °C 19.9 °C 1008.7 hPa SE 8 km/h 11.3 km/h 75% 0 mm
10:48 24.9 °C 20 °C 1008.4 hPa South 6.4 km/h 12.9 km/h 74% 0 mm
10:53 25.1 °C 20.2 °C 1008.4 hPa ESE 8 km/h 11.3 km/h 74% 0 mm
10:58 25.3 °C 20.4 °C 1008.4 hPa SW 8 km/h 11.3 km/h 74% 0 mm
11:03 25.4 °C 20.3 °C 1008.4 hPa SSW 8 km/h 11.3 km/h 73% 0 mm
11:08 25.8 °C 20.1 °C 1008.4 hPa SE 4.8 km/h 11.3 km/h 71% 0 mm
11:13 26.2 °C 20.1 °C 1008.4 hPa South 3.2 km/h 9.7 km/h 69% 0 mm
11:18 26.4 °C 20.7 °C 1008.4 hPa SW 6.4 km/h 9.7 km/h 71% 0 mm
11:23 26.6 °C 18.9 °C 1008.4 hPa South 14.5 km/h 17.7 km/h 63% 0 mm
11:28 26.6 °C 17.9 °C 1008.4 hPa SSW 12.9 km/h 17.7 km/h 59% 0 mm
11:33 26.7 °C 18.8 °C 1008.4 hPa South 9.7 km/h 12.9 km/h 62% 0 mm
11:38 26.8 °C 18.7 °C 1008.4 hPa SW 16.1 km/h 19.3 km/h 61% 0 mm
11:43 26.9 °C 18.3 °C 1008.4 hPa SSW 8 km/h 24.1 km/h 59% 0 mm
11:48 27 °C 17.8 °C 1008.4 hPa South 14.5 km/h 25.7 km/h 57% 0 mm
11:53 27 °C 18.3 °C 1008 hPa SSE 14.5 km/h 19.3 km/h 59% 0 mm
11:58 27.1 °C 17.8 °C 1008 hPa SSW 14.5 km/h 20.9 km/h 57% 0 mm
12:03 27.1 °C 18.4 °C 1008.4 hPa SSW 12.9 km/h 17.7 km/h 59% 0 mm
12:08 27.1 °C 18.4 °C 1008 hPa SE 16.1 km/h 22.5 km/h 59% 0 mm
12:13 27.2 °C 19.1 °C 1008.4 hPa SE 14.5 km/h 19.3 km/h 61% 0 mm
12:16 27.1 °C 18.4 °C 1008.4 hPa SE 24.1 km/h 24.1 km/h 59% 0 mm
12:21 27.1 °C 17.8 °C 1008.4 hPa SE 24.1 km/h 25.7 km/h 57% 0 mm
12:26 27.2 °C 18.4 °C 1008.4 hPa South 16.1 km/h 19.3 km/h 59% 0 mm
12:31 27.3 °C 19.2 °C 1008.4 hPa South 14.5 km/h 19.3 km/h 61% 0 mm
12:36 27.3 °C 17.8 °C 1008 hPa South 11.3 km/h 29 km/h 56% 0 mm
12:41 27.5 °C 18.2 °C 1008 hPa SSE 17.7 km/h 22.5 km/h 57% 0 mm
12:46 27.5 °C 17.9 °C 1008 hPa SE 16.1 km/h 20.9 km/h 56% 0 mm
12:51 27.6 °C 18.1 °C 1008 hPa South 11.3 km/h 17.7 km/h 56% 0 mm
12:56 27.7 °C 18.1 °C 1008 hPa WSW 9.7 km/h 19.3 km/h 56% 0 mm
13:01 27.6 °C 18.1 °C 1007.7 hPa SE 22.5 km/h 24.1 km/h 56% 0 mm
13:06 27.7 °C 18.4 °C 1007.7 hPa SSE 16.1 km/h 16.1 km/h 57% 0 mm
13:11 27.7 °C 18.4 °C 1007.7 hPa SSE 24.1 km/h 24.1 km/h 57% 0 mm
13:16 27.8 °C 18.6 °C 1007.3 hPa South 6.4 km/h 17.7 km/h 57% 0 mm
13:21 28.2 °C 18.8 °C 1007.3 hPa South 16.1 km/h 20.9 km/h 57% 0 mm
13:26 28.3 °C 18.7 °C 1007.7 hPa SSE 19.3 km/h 22.5 km/h 56% 0 mm
13:31 28.2 °C 19.4 °C 1007.3 hPa South 12.9 km/h 16.1 km/h 59% 0 mm
13:36 28.2 °C 18.6 °C 1007.3 hPa SW 9.7 km/h 17.7 km/h 56% 0 mm
13:41 28.3 °C 17.8 °C 1007.3 hPa SSE 12.9 km/h 19.3 km/h 53% 0 mm
13:46 28.3 °C 17.6 °C 1007.3 hPa SE 17.7 km/h 19.3 km/h 52% 0 mm
13:51 28.2 °C 17.7 °C 1007.3 hPa SW 14.5 km/h 16.1 km/h 53% 0 mm
13:56 28.5 °C 18.6 °C 1007 hPa South 12.9 km/h 16.1 km/h 55% 0 mm
14:01 28.5 °C 18.3 °C 1007.3 hPa SSW 12.9 km/h 14.5 km/h 54% 0 mm
14:06 28.7 °C 18.5 °C 1007 hPa SW 17.7 km/h 17.7 km/h 54% 0 mm
14:11 28.7 °C 19.1 °C 1007 hPa SSW 4.8 km/h 12.9 km/h 56% 0 mm
14:16 28.7 °C 19.4 °C 1007 hPa SSE 6.4 km/h 16.1 km/h 57% 0 mm
14:21 28.9 °C 18.9 °C 1007 hPa SW 20.9 km/h 20.9 km/h 55% 0 mm
14:26 28.8 °C 18.3 °C 1007 hPa WSW 12.9 km/h 12.9 km/h 53% 0 mm
14:31 28.8 °C 19.5 °C 1006.7 hPa SW 6.4 km/h 9.7 km/h 57% 0 mm
14:36 28.9 °C 18.4 °C 1006.7 hPa SE 12.9 km/h 19.3 km/h 53% 0 mm
14:42 29.1 °C 18.5 °C 1006.7 hPa SW 9.7 km/h 14.5 km/h 53% 0 mm
14:47 29.1 °C 19.7 °C 1006.7 hPa South 6.4 km/h 14.5 km/h 57% 0 mm
14:52 29.3 °C 19 °C 1006.7 hPa SSW 8 km/h 16.1 km/h 54% 0 mm
14:57 29.3 °C 19 °C 1006.3 hPa SSE 19.3 km/h 20.9 km/h 54% 0 mm
15:02 29.1 °C 18.2 °C 1006.3 hPa SSE 17.7 km/h 19.3 km/h 52% 0 mm
15:07 29.2 °C 18.9 °C 1006.3 hPa South 12.9 km/h 22.5 km/h 54% 0 mm
15:12 29.3 °C 19 °C 1006 hPa South 6.4 km/h 19.3 km/h 54% 0 mm
15:17 29.4 °C 19.1 °C 1006 hPa SSE 16.1 km/h 20.9 km/h 54% 0 mm
15:22 29.3 °C 18.2 °C 1006 hPa SSW 9.7 km/h 16.1 km/h 51% 0 mm
15:27 29.4 °C 18.2 °C 1005.6 hPa SSW 11.3 km/h 24.1 km/h 51% 0 mm
15:32 29.4 °C 17.9 °C 1005.6 hPa South 8 km/h 19.3 km/h 50% 0 mm
15:37 29.6 °C 18.7 °C 1005.6 hPa South 12.9 km/h 29 km/h 52% 0 mm
15:42 29.6 °C 19 °C 1005.3 hPa SSW 12.9 km/h 22.5 km/h 53% 0 mm
15:44 29.6 °C 19 °C 1005.3 hPa SSW 12.9 km/h 22.5 km/h 53% 0 mm
15:49 29.8 °C 19.5 °C 1005 hPa SSW 9.7 km/h 14.5 km/h 54% 0 mm
15:54 29.9 °C 19 °C 1005 hPa SE 9.7 km/h 20.9 km/h 52% 0 mm
15:59 29.7 °C 18.5 °C 1004.6 hPa SSE 14.5 km/h 20.9 km/h 51% 0 mm
16:04 29.7 °C 18.8 °C 1004.6 hPa SE 12.9 km/h 19.3 km/h 52% 0 mm
16:09 29.6 °C 19 °C 1004.3 hPa SSE 20.9 km/h 20.9 km/h 53% 0 mm
16:14 29.5 °C 18.9 °C 1003.9 hPa SSE 12.9 km/h 17.7 km/h 53% 0 mm
16:19 29.4 °C 19.2 °C 1003.9 hPa South 11.3 km/h 16.1 km/h 54% 0 mm
16:22 29.4 °C 18.8 °C 1003.9 hPa SE 9.7 km/h 19.3 km/h 53% 0 mm
16:27 29.4 °C 18.8 °C 1003.9 hPa SSW 9.7 km/h 16.1 km/h 53% 0 mm
16:29 29.3 °C 19.1 °C 1003.9 hPa SW 17.7 km/h 17.7 km/h 54% 0 mm
16:34 29.6 °C 19 °C 1003.9 hPa SSW 8 km/h 12.9 km/h 53% 0 mm
16:39 29.4 °C 18.6 °C 1003.9 hPa SW 4.8 km/h 14.5 km/h 52% 0 mm
16:44 29.3 °C 18.7 °C 1004.3 hPa SSE 6.4 km/h 17.7 km/h 53% 0 mm
16:49 29.1 °C 18.8 °C 1004.3 hPa SSW 11.3 km/h 16.1 km/h 54% 0 mm
16:54 28.9 °C 19 °C 1004.6 hPa WSW 14.5 km/h 16.1 km/h 55% 0 mm
16:59 29.1 °C 19.4 °C 1004.6 hPa SW 14.5 km/h 19.3 km/h 56% 0 mm
17:04 29.2 °C 19.3 °C 1004.6 hPa WSW 16.1 km/h 17.7 km/h 55% 0 mm
17:09 29.3 °C 19.1 °C 1004.6 hPa WSW 14.5 km/h 20.9 km/h 54% 0 mm
17:14 29.5 °C 18.6 °C 1004.3 hPa SW 20.9 km/h 20.9 km/h 52% 0 mm
17:19 29.7 °C 19.1 °C 1004.3 hPa SE 12.9 km/h 17.7 km/h 53% 0 mm
17:24 29.7 °C 19.1 °C 1004.3 hPa SW 16.1 km/h 17.7 km/h 53% 0 mm
17:29 29.6 °C 19 °C 1003.9 hPa South 16.1 km/h 16.1 km/h 53% 0 mm
17:34 29.4 °C 18.6 °C 1004.3 hPa SSW 8 km/h 19.3 km/h 52% 0 mm
17:39 29.3 °C 19.3 °C 1003.9 hPa SE 6.4 km/h 12.9 km/h 55% 0 mm
17:44 29.1 °C 19.2 °C 1003.9 hPa South 12.9 km/h 20.9 km/h 55% 0 mm
17:50 28.8 °C 19.2 °C 1003.9 hPa South 17.7 km/h 20.9 km/h 56% 0 mm
17:55 28.7 °C 19.1 °C 1003.9 hPa South 12.9 km/h 19.3 km/h 56% 0 mm
18:00 28.5 °C 18.9 °C 1003.9 hPa SSE 9.7 km/h 14.5 km/h 56% 0 mm
18:05 28.3 °C 18.7 °C 1003.9 hPa South 11.3 km/h 16.1 km/h 56% 0 mm
18:10 28.2 °C 19.1 °C 1004.3 hPa SSE 12.9 km/h 14.5 km/h 58% 0 mm
18:15 28.1 °C 19 °C 1004.3 hPa South 14.5 km/h 16.1 km/h 58% 0 mm
18:20 27.9 °C 18.9 °C 1003.9 hPa SSW 12.9 km/h 19.3 km/h 58% 0 mm
18:25 27.8 °C 19.1 °C 1003.9 hPa SSW 9.7 km/h 12.9 km/h 59% 0 mm
18:30 27.7 °C 19.3 °C 1003.9 hPa SW 9.7 km/h 16.1 km/h 60% 0 mm
18:35 27.6 °C 19.4 °C 1004.3 hPa SSW 9.7 km/h 12.9 km/h 61% 0 mm
18:40 27.6 °C 19.6 °C 1004.3 hPa SSW 1.6 km/h 11.3 km/h 62% 0 mm
18:45 27.5 °C 19.8 °C 1004.3 hPa SW 8 km/h 12.9 km/h 63% 0 mm
18:50 27.3 °C 19.7 °C 1004.3 hPa SSE 11.3 km/h 27.4 km/h 63% 0 mm
18:55 27.1 °C 18.9 °C 1004.3 hPa SSE 16.1 km/h 29 km/h 61% 0 mm
19:00 26.8 °C 18.9 °C 1004.6 hPa SSE 8 km/h 22.5 km/h 62% 0 mm
19:05 26.6 °C 18.7 °C 1003.9 hPa SW 8 km/h 19.3 km/h 62% 0 mm
19:10 26.4 °C 18.8 °C 1004.3 hPa SSW 8 km/h 19.3 km/h 63% 0 mm
19:15 26.2 °C 19.1 °C 1004.6 hPa SSW 17.7 km/h 22.5 km/h 65% 0 mm
19:20 25.8 °C 19.4 °C 1004.6 hPa SW 14.5 km/h 20.9 km/h 68% 0 mm
19:25 25.3 °C 19.7 °C 1004.6 hPa South 6.4 km/h 19.3 km/h 71% 0 mm
19:30 25.2 °C 19.6 °C 1004.6 hPa SSE 11.3 km/h 16.1 km/h 71% 0 mm
19:35 25.1 °C 19.4 °C 1004.6 hPa SSW 11.3 km/h 12.9 km/h 71% 0 mm
19:40 25 °C 19.6 °C 1004.6 hPa SSE 4.8 km/h 11.3 km/h 72% 0 mm
19:45 24.9 °C 19.5 °C 1004.6 hPa South 8 km/h 11.3 km/h 72% 0 mm
19:50 24.7 °C 19.6 °C 1005 hPa SW 12.9 km/h 16.1 km/h 73% 0 mm
19:55 24.6 °C 19.4 °C 1005 hPa SSW 11.3 km/h 16.1 km/h 73% 0 mm
20:00 24.5 °C 18.9 °C 1005.3 hPa SSW 9.7 km/h 25.7 km/h 71% 0 mm
20:05 24.5 °C 18.7 °C 1005.6 hPa WSW 19.3 km/h 20.9 km/h 70% 0 mm
20:10 23.7 °C 17.2 °C 1006 hPa WSW 16.1 km/h 32.2 km/h 67% 0 mm
20:15 22.9 °C 16.9 °C 1006 hPa SW 17.7 km/h 27.4 km/h 69% 0 mm
20:20 22.3 °C 16.8 °C 1006 hPa West 9.7 km/h 32.2 km/h 71% 0 mm
20:25 21.7 °C 16.6 °C 1006 hPa WSW 14.5 km/h 25.7 km/h 73% 0 mm
20:30 21.3 °C 16.4 °C 1006.3 hPa WSW 12.9 km/h 17.7 km/h 74% 0 mm
20:35 21.1 °C 16.4 °C 1006.3 hPa West 11.3 km/h 17.7 km/h 75% 0 mm
20:40 20.9 °C 16.3 °C 1006.3 hPa West 4.8 km/h 9.7 km/h 75% 0 mm
20:45 20.8 °C 16.2 °C 1006.3 hPa WSW 8 km/h 14.5 km/h 75% 0 mm
20:50 20.8 °C 16.4 °C 1006.7 hPa SW 6.4 km/h 11.3 km/h 76% 0 mm
20:55 20.8 °C 16.4 °C 1006.7 hPa SSW 9.7 km/h 12.9 km/h 76% 0 mm
21:00 20.7 °C 16.3 °C 1006.7 hPa South 3.2 km/h 8 km/h 76% 0 mm
21:05 20.7 °C 16.3 °C 1006.7 hPa SW 12.9 km/h 19.3 km/h 76% 0 mm
21:10 20.6 °C 16.4 °C 1006.3 hPa SW 8 km/h 11.3 km/h 77% 0 mm
21:15 20.4 °C 16.5 °C 1006.3 hPa SW 12.9 km/h 14.5 km/h 78% 0 mm
21:20 20.4 °C 16.3 °C 1006.3 hPa SW 9.7 km/h 17.7 km/h 77% 0 mm
21:25 20.5 °C 16.6 °C 1006.7 hPa SSW 6.4 km/h 11.3 km/h 78% 0 mm
21:30 20.4 °C 16.6 °C 1006.7 hPa SW 6.4 km/h 8 km/h 79% 0 mm
21:35 20.2 °C 16.7 °C 1006.7 hPa SW 3.2 km/h 4.8 km/h 80% 0 mm
21:40 20.1 °C 16.7 °C 1006.3 hPa SW 3.2 km/h 4.8 km/h 81% 0 mm
21:45 19.9 °C 16.6 °C 1006 hPa SW 4.8 km/h 8 km/h 81% 0 mm
21:50 19.8 °C 16.6 °C 1006 hPa SSW 3.2 km/h 6.4 km/h 82% 0 mm
21:56 19.7 °C 16.7 °C 1006 hPa SE 1.6 km/h 3.2 km/h 83% 0 mm
22:01 19.6 °C 16.6 °C 1006 hPa SSE 3.2 km/h 3.2 km/h 83% 0 mm
22:06 19.4 °C 16.8 °C 1006 hPa SE 3.2 km/h 3.2 km/h 85% 0 mm
22:11 19.3 °C 16.9 °C 1006 hPa ESE 3.2 km/h 3.2 km/h 86% 0 mm
22:16 19.2 °C 17 °C 1006 hPa ESE 1.6 km/h 3.2 km/h 87% 0 mm
22:21 19.1 °C 16.9 °C 1006.3 hPa South 1.6 km/h 3.2 km/h 87% 0 mm
22:26 19.1 °C 16.8 °C 1006 hPa SE 1.6 km/h 4.8 km/h 87% 0 mm
22:31 19.1 °C 16.8 °C 1006 hPa Calm   3.2 km/h 87% 0 mm
22:36 19 °C 16.8 °C 1006.3 hPa SSE 3.2 km/h 6.4 km/h 87% 0 mm
22:41 19 °C 16.9 °C 1006.3 hPa SSE 6.4 km/h 11.3 km/h 88% 0 mm
22:46 18.9 °C 16.9 °C 1006 hPa SE 3.2 km/h 8 km/h 88% 0 mm
22:51 18.9 °C 17.1 °C 1006 hPa SE 4.8 km/h 9.7 km/h 89% 0 mm
22:56 18.8 °C 17 °C 1006 hPa ESE 6.4 km/h 8 km/h 89% 0 mm
23:01 18.8 °C 16.9 °C 1006 hPa South 3.2 km/h 4.8 km/h 89% 0 mm
23:06 18.8 °C 16.9 °C 1006.3 hPa West 3.2 km/h 3.2 km/h 89% 0 mm
23:11 18.7 °C 17 °C 1006.3 hPa WSW 3.2 km/h 3.2 km/h 90% 0 mm
23:16 18.7 °C 16.8 °C 1006.3 hPa SSW 1.6 km/h 8 km/h 89% 0 mm
23:21 18.6 °C 16.8 °C 1006.7 hPa SSE 3.2 km/h 4.8 km/h 89% 0 mm
23:26 18.6 °C 16.7 °C 1006.3 hPa SE 8 km/h 8 km/h 89% 0 mm
23:31 18.5 °C 16.8 °C 1006.3 hPa SE 6.4 km/h 9.7 km/h 90% 0 mm
23:36 18.6 °C 16.9 °C 1006 hPa SE 6.4 km/h 11.3 km/h 90% 0 mm
23:41 18.6 °C 16.9 °C 1006 hPa SSE 4.8 km/h 6.4 km/h 90% 0 mm
23:46 18.5 °C 17 °C 1006 hPa South 4.8 km/h 8 km/h 91% 0 mm
23:51 18.5 °C 17 °C 1005.6 hPa SSE 9.7 km/h 11.3 km/h 91% 0 mm
23:56 18.6 °C 17.1 °C 1005.6 hPa SE 4.8 km/h 12.9 km/h 91% 0 mm
Compliments of Weather Underground